createdAt,value
2022-08-25T00:00:11.167Z,20.93
2022-08-25T00:02:58.417Z,20.92
2022-08-25T00:05:32.294Z,20.92
2022-08-25T00:08:01.619Z,20.92
2022-08-25T00:10:29.593Z,20.93
2022-08-25T00:12:56.265Z,20.94
2022-08-25T00:15:23.005Z,20.95
2022-08-25T00:17:50.558Z,20.98
2022-08-25T00:20:17.418Z,21.02
2022-08-25T00:22:44.756Z,21.06
2022-08-25T00:25:12.233Z,21.10
2022-08-25T00:27:38.881Z,21.10
2022-08-25T00:30:06.263Z,21.11
2022-08-25T00:32:33.035Z,21.17
2022-08-25T00:35:01.964Z,21.24
2022-08-25T00:37:29.356Z,21.27
2022-08-25T00:39:58.084Z,21.29
2022-08-25T00:42:26.402Z,21.30
2022-08-25T00:44:53.983Z,21.31
2022-08-25T00:47:24.065Z,21.29
2022-08-25T00:49:58.395Z,21.25
2022-08-25T00:52:29.058Z,21.22
2022-08-25T00:55:08.324Z,21.19
2022-08-25T00:57:42.807Z,21.13
2022-08-25T01:00:18.805Z,21.08
2022-08-25T01:02:45.918Z,21.04
2022-08-25T01:05:12.705Z,20.99
2022-08-25T01:07:46.754Z,20.95
2022-08-25T01:10:36.833Z,20.88
2022-08-25T01:13:55.357Z,20.81
2022-08-25T01:17:42.022Z,20.72
2022-08-25T01:21:28.320Z,20.62
2022-08-25T01:24:32.211Z,20.54
2022-08-25T01:26:59.388Z,20.48
2022-08-25T01:29:27.572Z,20.41
2022-08-25T01:31:58.248Z,20.37
2022-08-25T01:34:27.674Z,20.35
2022-08-25T01:36:56.604Z,20.33
2022-08-25T01:39:24.365Z,20.30
2022-08-25T01:42:12.649Z,20.27
2022-08-25T01:44:43.624Z,20.25
2022-08-25T01:47:14.298Z,20.23
2022-08-25T01:50:01.904Z,20.22
2022-08-25T01:53:22.084Z,20.25
2022-08-25T01:55:54.253Z,20.30
2022-08-25T01:58:54.764Z,20.32
2022-08-25T02:02:07.441Z,20.34
2022-08-25T02:04:34.924Z,20.35
2022-08-25T02:07:05.143Z,20.37
2022-08-25T02:09:33.602Z,20.39
2022-08-25T02:12:01.626Z,20.40
2022-08-25T02:14:28.795Z,20.41
2022-08-25T02:16:55.685Z,20.45
2022-08-25T02:19:25.372Z,20.48
2022-08-25T02:21:52.952Z,20.49
2022-08-25T02:24:19.788Z,20.45
2022-08-25T02:26:46.529Z,20.41
2022-08-25T02:29:13.452Z,20.32
2022-08-25T02:31:40.490Z,20.25
2022-08-25T02:34:08.559Z,20.21
2022-08-25T02:36:37.218Z,20.16
2022-08-25T02:39:06.684Z,20.11
2022-08-25T02:41:34.789Z,20.06
2022-08-25T02:44:03.559Z,20.02
2022-08-25T02:46:31.769Z,19.99
2022-08-25T02:49:00.108Z,19.96
2022-08-25T02:51:29.488Z,19.93
2022-08-25T02:54:01.443Z,19.88
2022-08-25T02:56:30.543Z,19.83
2022-08-25T02:58:58.162Z,19.79
2022-08-25T03:01:28.499Z,19.76
2022-08-25T03:03:58.045Z,19.74
2022-08-25T03:06:25.056Z,19.71
2022-08-25T03:08:53.051Z,19.68
2022-08-25T03:11:20.507Z,19.66
2022-08-25T03:13:50.487Z,19.65
2022-08-25T03:16:17.990Z,19.64
2022-08-25T03:18:45.127Z,19.65
2022-08-25T03:21:12.791Z,19.67
2022-08-25T03:23:41.335Z,19.71
2022-08-25T03:26:27.366Z,19.74
2022-08-25T03:28:57.372Z,19.76
2022-08-25T03:31:28.339Z,19.76
2022-08-25T03:33:56.055Z,19.78
2022-08-25T03:36:23.961Z,19.80
2022-08-25T03:38:51.817Z,19.84
2022-08-25T03:41:32.029Z,19.85
2022-08-25T03:44:00.535Z,19.86
2022-08-25T03:46:33.952Z,19.85
2022-08-25T03:49:02.778Z,19.83
2022-08-25T03:51:40.266Z,19.79
2022-08-25T03:54:08.725Z,19.78
2022-08-25T03:57:15.542Z,19.76
2022-08-25T04:00:39.353Z,19.73
2022-08-25T04:03:30.039Z,19.68
2022-08-25T04:06:37.679Z,19.63
2022-08-25T04:09:13.244Z,19.57
2022-08-25T04:11:44.840Z,19.52
2022-08-25T04:14:15.916Z,19.47
2022-08-25T04:16:54.135Z,19.43
2022-08-25T04:19:30.911Z,19.39
2022-08-25T04:21:59.115Z,19.37
2022-08-25T04:24:28.311Z,19.35
2022-08-25T04:26:56.820Z,19.31
2022-08-25T04:29:25.978Z,19.29
2022-08-25T04:31:54.557Z,19.26
2022-08-25T04:34:29.931Z,19.25
2022-08-25T04:37:04.974Z,19.25
2022-08-25T04:39:32.369Z,19.26
2022-08-25T04:42:00.108Z,19.27
2022-08-25T04:44:28.450Z,19.30
2022-08-25T04:46:55.209Z,19.35
2022-08-25T04:49:22.832Z,19.43
2022-08-25T04:51:49.872Z,19.51
2022-08-25T04:54:21.077Z,19.57
2022-08-25T04:56:50.263Z,19.64
2022-08-25T04:59:21.644Z,19.70
2022-08-25T05:01:50.110Z,19.76
2022-08-25T05:05:18.992Z,19.81
2022-08-25T05:07:47.541Z,19.86
2022-08-25T05:10:15.444Z,19.89
2022-08-25T05:12:43.639Z,19.94
2022-08-25T05:15:30.427Z,19.99
2022-08-25T05:17:58.215Z,20.05
2022-08-25T05:20:25.566Z,20.11
2022-08-25T05:22:53.476Z,20.15
2022-08-25T05:25:21.158Z,20.17
2022-08-25T05:27:47.871Z,20.18
2022-08-25T05:30:14.654Z,20.18
2022-08-25T05:32:42.464Z,20.15
2022-08-25T05:35:09.760Z,20.11
2022-08-25T05:37:39.546Z,20.05
2022-08-25T05:40:07.867Z,20.01
2022-08-25T05:42:43.415Z,19.97
2022-08-25T05:45:16.710Z,19.94
2022-08-25T05:47:52.929Z,19.91
2022-08-25T05:50:21.150Z,19.90
2022-08-25T05:52:54.412Z,19.88
2022-08-25T05:55:49.854Z,19.85
2022-08-25T05:58:19.386Z,19.83
2022-08-25T06:00:46.724Z,19.82
2022-08-25T06:03:14.404Z,19.84
2022-08-25T06:05:41.713Z,19.89
2022-08-25T06:08:08.612Z,19.94
2022-08-25T06:10:36.763Z,20.02
2022-08-25T06:13:04.146Z,20.10
2022-08-25T06:15:33.534Z,20.19
2022-08-25T06:18:02.088Z,20.27
2022-08-25T06:20:34.820Z,20.35
2022-08-25T06:23:01.462Z,20.45
2022-08-25T06:25:32.009Z,20.58
2022-08-25T06:27:58.729Z,20.69
2022-08-25T06:30:28.845Z,20.80
2022-08-25T06:32:56.414Z,20.90
2022-08-25T06:35:23.527Z,20.96
2022-08-25T06:37:50.237Z,21.04
2022-08-25T06:40:17.016Z,21.10
2022-08-25T06:42:48.002Z,21.17
2022-08-25T06:45:14.952Z,21.24
2022-08-25T06:47:42.332Z,21.33
2022-08-25T06:50:09.615Z,21.42
2022-08-25T06:52:37.297Z,21.53
2022-08-25T06:55:06.268Z,21.63
2022-08-25T06:57:35.228Z,21.72
2022-08-25T07:00:07.372Z,21.81
2022-08-25T07:02:35.269Z,21.89
2022-08-25T07:05:03.622Z,21.94
2022-08-25T07:07:44.089Z,21.98
2022-08-25T07:10:12.352Z,22.02
2022-08-25T07:12:39.765Z,22.06
2022-08-25T07:15:22.195Z,22.09
2022-08-25T07:18:00.418Z,22.13
2022-08-25T07:21:08.884Z,22.17
2022-08-25T07:24:56.848Z,22.22
2022-08-25T07:28:47.458Z,22.27
2022-08-25T07:32:34.878Z,22.27
2022-08-25T07:36:22.385Z,22.28
2022-08-25T07:40:10.015Z,22.29
2022-08-25T07:43:57.963Z,22.30
2022-08-25T07:47:45.729Z,22.31
2022-08-25T07:51:35.152Z,22.33
2022-08-25T07:55:22.711Z,22.36
2022-08-25T07:59:12.583Z,22.42
2022-08-25T08:03:01.574Z,22.50
2022-08-25T08:06:51.612Z,22.58
2022-08-25T08:14:51.774Z,22.64
2022-08-25T08:18:19.138Z,22.68
2022-08-25T08:22:06.758Z,22.76
2022-08-25T08:25:53.704Z,22.85
2022-08-25T08:29:01.491Z,22.97
2022-08-25T08:31:39.495Z,23.09
2022-08-25T08:34:19.118Z,23.20
2022-08-25T08:37:14.853Z,23.30
2022-08-25T08:40:06.398Z,23.42
2022-08-25T08:42:37.009Z,23.55
2022-08-25T08:45:44.029Z,23.66
2022-08-25T08:49:04.687Z,23.77
2022-08-25T08:51:43.783Z,23.86
2022-08-25T08:54:18.100Z,23.95
2022-08-25T08:56:54.716Z,24.03
2022-08-25T08:59:35.488Z,24.11
2022-08-25T09:02:39.134Z,24.20
2022-08-25T09:05:58.054Z,24.33
2022-08-25T09:09:06.703Z,24.39
2022-08-25T09:12:36.600Z,24.44
2022-08-25T09:15:52.062Z,24.53
2022-08-25T09:18:41.207Z,24.63
2022-08-25T09:22:01.744Z,24.74
2022-08-25T09:25:52.957Z,24.86
2022-08-25T09:28:44.756Z,24.97
2022-08-25T09:32:31.351Z,25.08
2022-08-25T09:35:28.267Z,25.18
2022-08-25T09:38:10.082Z,25.26
2022-08-25T09:41:40.627Z,25.34
2022-08-25T09:45:00.968Z,25.46
2022-08-25T09:48:40.760Z,25.59
2022-08-25T09:51:59.271Z,25.71
2022-08-25T09:54:49.124Z,25.80
2022-08-25T09:58:02.702Z,25.88
2022-08-25T10:00:58.923Z,25.98
2022-08-25T10:04:18.879Z,26.03
2022-08-25T10:06:53.660Z,26.13
2022-08-25T10:09:30.738Z,26.20
2022-08-25T10:12:02.146Z,26.26
2022-08-25T10:14:44.518Z,26.35
2022-08-25T10:17:33.520Z,26.42
2022-08-25T10:20:09.376Z,26.47
2022-08-25T10:22:37.674Z,26.52
2022-08-25T10:25:08.129Z,26.58
2022-08-25T10:27:46.876Z,26.63
2022-08-25T10:30:27.582Z,26.68
2022-08-25T10:33:27.952Z,26.70
2022-08-25T10:36:20.367Z,26.73
2022-08-25T10:38:58.105Z,26.77
2022-08-25T10:41:53.390Z,26.85
2022-08-25T10:44:57.207Z,26.92
2022-08-25T10:47:42.169Z,26.99
2022-08-25T10:50:30.603Z,27.08
2022-08-25T10:53:13.079Z,27.19
2022-08-25T10:56:02.639Z,27.28
2022-08-25T10:59:19.638Z,27.33
2022-08-25T11:02:12.611Z,27.38
2022-08-25T11:05:01.326Z,27.40
2022-08-25T11:07:36.486Z,27.44
2022-08-25T11:10:13.524Z,27.49
2022-08-25T11:13:03.314Z,27.55
2022-08-25T11:15:50.249Z,27.63
2022-08-25T11:18:31.286Z,27.72
2022-08-25T11:21:10.991Z,27.82
2022-08-25T11:23:52.837Z,27.89
2022-08-25T11:26:31.037Z,27.96
2022-08-25T11:29:11.529Z,28.02
2022-08-25T11:31:53.560Z,28.08
2022-08-25T11:34:22.037Z,28.14
2022-08-25T11:36:57.090Z,28.20
2022-08-25T11:39:42.280Z,28.27
2022-08-25T11:42:51.676Z,28.35
2022-08-25T11:45:54.018Z,28.42
2022-08-25T11:48:21.460Z,28.48
2022-08-25T11:51:00.300Z,28.53
2022-08-25T11:54:06.933Z,28.59
2022-08-25T11:56:37.963Z,28.67
2022-08-25T11:59:08.142Z,28.72
2022-08-25T12:01:43.719Z,28.78
2022-08-25T12:04:44.345Z,28.81
2022-08-25T12:07:19.956Z,28.80
2022-08-25T12:09:53.121Z,28.79
2022-08-25T12:12:43.316Z,28.83
2022-08-25T12:15:20.808Z,28.88
2022-08-25T12:18:28.749Z,28.95
2022-08-25T12:20:57.981Z,29.01
2022-08-25T12:24:01.994Z,29.05
2022-08-25T12:26:53.407Z,29.05
2022-08-25T12:29:29.377Z,29.08
2022-08-25T12:31:57.062Z,29.13
2022-08-25T12:35:07.451Z,29.16
2022-08-25T12:37:34.898Z,29.20
2022-08-25T12:40:05.003Z,29.23
2022-08-25T12:42:36.685Z,29.25
2022-08-25T12:45:19.660Z,29.27
2022-08-25T12:47:48.817Z,29.26
2022-08-25T12:50:40.296Z,29.27
2022-08-25T12:53:31.781Z,29.31
2022-08-25T12:56:23.693Z,29.32
2022-08-25T12:59:09.782Z,29.35
2022-08-25T13:02:03.043Z,29.38
2022-08-25T13:04:33.716Z,29.37
2022-08-25T13:07:13.803Z,29.35
2022-08-25T13:10:11.414Z,29.35
2022-08-25T13:13:03.914Z,29.39
2022-08-25T13:15:48.729Z,29.44
2022-08-25T13:18:26.199Z,29.50
2022-08-25T13:21:05.623Z,29.55
2022-08-25T13:23:37.373Z,29.62
2022-08-25T13:26:04.822Z,29.69
2022-08-25T13:28:35.841Z,29.73
2022-08-25T13:31:27.543Z,29.79
2022-08-25T13:33:58.695Z,29.84
2022-08-25T13:36:51.903Z,29.87
2022-08-25T13:39:45.481Z,29.91
2022-08-25T13:42:15.551Z,29.94
2022-08-25T13:44:52.296Z,29.97
2022-08-25T13:47:43.578Z,29.98
2022-08-25T13:50:18.669Z,30.00
2022-08-25T13:52:55.133Z,30.05
2022-08-25T13:55:38.357Z,30.07
2022-08-25T13:58:24.592Z,30.12
2022-08-25T14:01:22.720Z,30.18
2022-08-25T14:04:39.601Z,30.23
2022-08-25T14:07:20.692Z,30.30
2022-08-25T14:10:13.056Z,30.33
2022-08-25T14:12:46.072Z,30.37
2022-08-25T14:15:21.647Z,30.37
2022-08-25T14:18:02.980Z,30.37
2022-08-25T14:20:31.688Z,30.39
2022-08-25T14:23:03.773Z,30.43
2022-08-25T14:25:34.739Z,30.43
2022-08-25T14:28:07.116Z,30.40
2022-08-25T14:30:38.831Z,30.37
2022-08-25T14:33:07.241Z,30.35
2022-08-25T14:35:34.113Z,30.33
2022-08-25T14:38:08.966Z,30.32
2022-08-25T14:40:36.659Z,30.33
2022-08-25T14:43:03.417Z,30.34
2022-08-25T14:45:31.824Z,30.34
2022-08-25T14:48:04.884Z,30.36
2022-08-25T14:50:41.897Z,30.37
2022-08-25T14:53:11.675Z,30.36
2022-08-25T14:55:38.514Z,30.35
2022-08-25T14:58:07.800Z,30.36
2022-08-25T15:00:40.085Z,30.32
2022-08-25T15:03:07.828Z,30.29
2022-08-25T15:05:34.675Z,30.27
2022-08-25T15:08:19.799Z,30.23
2022-08-25T15:10:47.563Z,30.10
2022-08-25T15:13:14.435Z,30.02
2022-08-25T15:15:52.287Z,30.02
2022-08-25T15:18:21.322Z,30.04
2022-08-25T15:20:50.192Z,30.06
2022-08-25T15:23:18.273Z,30.06
2022-08-25T15:25:46.954Z,30.06
2022-08-25T15:28:17.366Z,30.04
2022-08-25T15:30:45.915Z,30.04
2022-08-25T15:33:13.958Z,30.02
2022-08-25T15:35:41.599Z,30.00
2022-08-25T15:38:10.373Z,29.98
2022-08-25T15:40:38.481Z,29.96
2022-08-25T15:43:05.513Z,29.96
2022-08-25T15:45:36.270Z,29.95
2022-08-25T15:48:04.413Z,29.94
2022-08-25T15:50:33.796Z,29.92
2022-08-25T15:53:00.680Z,29.90
2022-08-25T15:55:27.416Z,29.87
2022-08-25T15:57:54.576Z,29.86
2022-08-25T16:00:21.670Z,29.84
2022-08-25T16:02:49.014Z,29.82
2022-08-25T16:05:16.387Z,29.79
2022-08-25T16:07:45.371Z,29.74
2022-08-25T16:10:13.056Z,29.68
2022-08-25T16:12:42.575Z,29.65
2022-08-25T16:15:12.213Z,29.63
2022-08-25T16:17:40.739Z,29.61
2022-08-25T16:20:13.669Z,29.59
2022-08-25T16:22:41.578Z,29.56
2022-08-25T16:25:09.681Z,29.54
2022-08-25T16:27:38.996Z,29.51
2022-08-25T16:30:07.680Z,29.48
2022-08-25T16:32:35.097Z,29.43
2022-08-25T16:35:03.562Z,29.37
2022-08-25T16:37:32.180Z,29.28
2022-08-25T16:39:59.109Z,29.16
2022-08-25T16:42:27.122Z,29.03
2022-08-25T16:44:55.532Z,28.91
2022-08-25T16:47:25.106Z,28.79
2022-08-25T16:49:54.131Z,28.66
2022-08-25T16:52:40.751Z,28.56
2022-08-25T16:55:14.479Z,28.42
2022-08-25T16:57:45.461Z,28.29
2022-08-25T17:00:18.477Z,28.18
2022-08-25T17:02:47.203Z,28.04
2022-08-25T17:05:14.168Z,27.91
2022-08-25T17:07:40.795Z,27.80
2022-08-25T17:10:12.430Z,27.70
2022-08-25T17:12:40.443Z,27.59
2022-08-25T17:15:07.551Z,27.50
2022-08-25T17:17:35.923Z,27.42
2022-08-25T17:20:04.728Z,27.33
2022-08-25T17:22:32.085Z,27.24
2022-08-25T17:25:00.995Z,27.17
2022-08-25T17:27:28.004Z,27.09
2022-08-25T17:29:55.373Z,27.00
2022-08-25T17:32:22.622Z,26.92
2022-08-25T17:34:55.747Z,26.84
2022-08-25T17:37:22.378Z,26.76
2022-08-25T17:39:50.589Z,26.69
2022-08-25T17:42:30.353Z,26.60
2022-08-25T17:44:57.994Z,26.54
2022-08-25T17:47:24.871Z,26.49
2022-08-25T17:49:51.501Z,26.43
2022-08-25T17:52:19.275Z,26.38
2022-08-25T17:54:48.600Z,26.34
2022-08-25T17:57:16.013Z,26.30
2022-08-25T17:59:42.699Z,26.24
2022-08-25T18:02:10.098Z,26.17
2022-08-25T18:04:38.145Z,26.10
2022-08-25T18:07:05.011Z,26.06
2022-08-25T18:09:31.888Z,26.04
2022-08-25T18:11:58.551Z,26.03
2022-08-25T18:14:25.759Z,26.01
2022-08-25T18:16:53.655Z,25.98
2022-08-25T18:19:20.894Z,25.95
2022-08-25T18:21:47.476Z,25.91
2022-08-25T18:24:14.034Z,25.89
2022-08-25T18:26:41.239Z,25.88
2022-08-25T18:29:12.521Z,25.87
2022-08-25T18:31:40.960Z,25.87
2022-08-25T18:34:10.767Z,25.87
2022-08-25T18:36:38.932Z,25.87
2022-08-25T18:39:24.938Z,25.86
2022-08-25T18:41:51.731Z,25.83
2022-08-25T18:44:18.606Z,25.80
2022-08-25T18:46:46.355Z,25.78
2022-08-25T18:49:15.873Z,25.78
2022-08-25T18:51:44.334Z,25.78
2022-08-25T18:54:23.183Z,25.77
2022-08-25T18:56:54.092Z,25.77
2022-08-25T18:59:23.610Z,25.77
2022-08-25T19:01:53.227Z,25.77
2022-08-25T19:04:20.472Z,25.75
2022-08-25T19:07:01.263Z,25.73
2022-08-25T19:09:29.307Z,25.71
2022-08-25T19:11:59.820Z,25.67
2022-08-25T19:14:28.011Z,25.62
2022-08-25T19:16:57.297Z,25.58
2022-08-25T19:19:24.583Z,25.53
2022-08-25T19:21:51.142Z,25.48
2022-08-25T19:24:18.618Z,25.39
2022-08-25T19:26:46.029Z,25.26
2022-08-25T19:29:16.546Z,25.11
2022-08-25T19:31:46.548Z,25.01
2022-08-25T19:34:18.160Z,24.93
2022-08-25T19:36:46.005Z,24.87
2022-08-25T19:39:14.402Z,24.82
2022-08-25T19:41:45.837Z,24.79
2022-08-25T19:44:12.629Z,24.73
2022-08-25T19:46:42.949Z,24.66
2022-08-25T19:49:25.701Z,24.52
2022-08-25T19:51:54.953Z,24.33
2022-08-25T19:54:58.120Z,24.19
2022-08-25T19:57:28.467Z,24.03
2022-08-25T20:00:15.287Z,23.92
2022-08-25T20:02:42.947Z,23.86
2022-08-25T20:05:09.865Z,23.82
2022-08-25T20:07:36.536Z,23.77
2022-08-25T20:10:05.933Z,23.68
2022-08-25T20:12:33.446Z,23.58
2022-08-25T20:15:01.749Z,23.53
2022-08-25T20:17:28.922Z,23.51
2022-08-25T20:19:59.081Z,23.51
2022-08-25T20:22:31.219Z,23.49
2022-08-25T20:25:01.847Z,23.49
2022-08-25T20:27:34.717Z,23.49
2022-08-25T20:30:04.124Z,23.46
2022-08-25T20:32:32.469Z,23.39
2022-08-25T20:35:00.512Z,23.33
2022-08-25T20:37:27.190Z,23.28
2022-08-25T20:39:54.360Z,23.23
2022-08-25T20:42:21.132Z,23.16
2022-08-25T20:44:47.803Z,23.09
2022-08-25T20:47:14.688Z,23.03
2022-08-25T20:49:44.721Z,22.96
2022-08-25T20:52:11.401Z,22.90
2022-08-25T20:54:38.780Z,22.85
2022-08-25T20:57:05.438Z,22.81
2022-08-25T20:59:34.696Z,22.78
2022-08-25T21:02:02.273Z,22.75
2022-08-25T21:04:30.529Z,22.72
2022-08-25T21:07:00.554Z,22.69
2022-08-25T21:09:28.626Z,22.67
2022-08-25T21:11:57.506Z,22.64
2022-08-25T21:14:29.322Z,22.61
2022-08-25T21:16:56.539Z,22.56
2022-08-25T21:19:26.790Z,22.53
2022-08-25T21:22:00.309Z,22.50
2022-08-25T21:24:29.573Z,22.45
2022-08-25T21:27:03.417Z,22.42
2022-08-25T21:29:55.201Z,22.41
2022-08-25T21:32:57.729Z,22.38
2022-08-25T21:35:35.238Z,22.33
2022-08-25T21:38:28.425Z,22.29
2022-08-25T21:41:20.637Z,22.25
2022-08-25T21:43:50.695Z,22.19
2022-08-25T21:46:24.527Z,22.11
2022-08-25T21:48:53.167Z,22.04
2022-08-25T21:51:35.351Z,21.96
2022-08-25T21:54:10.516Z,21.88
2022-08-25T21:56:42.546Z,21.82
2022-08-25T21:59:13.900Z,21.78
2022-08-25T22:01:41.392Z,21.77
2022-08-25T22:04:10.633Z,21.76
2022-08-25T22:06:38.399Z,21.72
2022-08-25T22:09:07.826Z,21.68
2022-08-25T22:11:36.187Z,21.63
2022-08-25T22:14:04.942Z,21.60
2022-08-25T22:16:34.317Z,21.56
2022-08-25T22:19:03.245Z,21.50
2022-08-25T22:21:31.360Z,21.43
2022-08-25T22:23:59.899Z,21.37
2022-08-25T22:26:28.790Z,21.32
2022-08-25T22:28:57.953Z,21.27
2022-08-25T22:31:25.221Z,21.24
2022-08-25T22:33:51.870Z,21.22
2022-08-25T22:36:18.338Z,21.18
2022-08-25T22:38:46.126Z,21.11
2022-08-25T22:41:19.119Z,21.04
2022-08-25T22:43:50.311Z,20.97
2022-08-25T22:46:19.945Z,20.89
2022-08-25T22:48:46.753Z,20.83
2022-08-25T22:51:23.734Z,20.79
2022-08-25T22:53:51.024Z,20.79
2022-08-25T22:56:33.358Z,20.79
2022-08-25T22:59:03.928Z,20.78
2022-08-25T23:01:31.469Z,20.76
2022-08-25T23:04:02.345Z,20.73
2022-08-25T23:06:30.131Z,20.69
2022-08-25T23:08:56.808Z,20.65
2022-08-25T23:11:24.912Z,20.62
2022-08-25T23:13:55.234Z,20.59
2022-08-25T23:16:22.750Z,20.57
2022-08-25T23:18:49.536Z,20.55
2022-08-25T23:21:35.147Z,20.55
2022-08-25T23:24:05.262Z,20.55
2022-08-25T23:26:33.343Z,20.53
2022-08-25T23:29:00.852Z,20.50
2022-08-25T23:31:30.644Z,20.48
2022-08-25T23:33:57.910Z,20.44
2022-08-25T23:36:25.189Z,20.40
2022-08-25T23:38:52.428Z,20.37
2022-08-25T23:41:23.743Z,20.35
2022-08-25T23:43:52.002Z,20.34
2022-08-25T23:46:22.842Z,20.32
2022-08-25T23:48:53.426Z,20.31
2022-08-25T23:51:29.508Z,20.31
2022-08-25T23:53:56.850Z,20.30
2022-08-25T23:56:25.955Z,20.29
2022-08-25T23:58:52.593Z,20.28
